createdAt,value
2019-05-12T00:00:48.530Z,95080.03
2019-05-12T00:03:19.719Z,95071.20
2019-05-12T00:05:51.276Z,95070.68
2019-05-12T00:08:22.256Z,95078.98
2019-05-12T00:10:54.642Z,95076.02
2019-05-12T00:13:27.929Z,95076.70
2019-05-12T00:15:59.533Z,95075.32
2019-05-12T00:18:30.412Z,95074.47
2019-05-12T00:21:01.820Z,95074.15
2019-05-12T00:23:34.617Z,95077.17
2019-05-12T00:26:07.913Z,95074.91
2019-05-12T00:28:39.347Z,95074.72
2019-05-12T00:31:10.857Z,95078.96
2019-05-12T00:33:42.278Z,95076.32
2019-05-12T00:36:13.749Z,95073.81
2019-05-12T00:38:45.291Z,95080.17
2019-05-12T00:41:18.132Z,95074.11
2019-05-12T00:43:49.794Z,95085.29
2019-05-12T00:46:21.235Z,95080.88
2019-05-12T00:48:52.796Z,95084.44
2019-05-12T00:51:24.080Z,95083.20
2019-05-12T00:53:55.285Z,95071.27
2019-05-12T00:56:28.480Z,95076.97
2019-05-12T00:59:00.306Z,95088.80
2019-05-12T01:01:31.730Z,95082.08
2019-05-12T01:04:03.029Z,95086.64
2019-05-12T01:06:34.411Z,95087.98
2019-05-12T01:09:08.848Z,95082.08
2019-05-12T01:11:40.348Z,95082.73
2019-05-12T01:14:11.788Z,95084.48
2019-05-12T01:16:42.994Z,95080.28
2019-05-12T01:19:14.375Z,95085.95
2019-05-12T01:21:48.003Z,95085.95
2019-05-12T01:24:19.178Z,95087.91
2019-05-12T01:26:50.973Z,95091.88
2019-05-12T01:29:22.497Z,95090.79
2019-05-12T01:32:18.185Z,95091.89
2019-05-12T01:34:49.279Z,95097.11
2019-05-12T01:37:24.055Z,95092.50
2019-05-12T01:39:59.690Z,95097.31
2019-05-12T01:42:29.539Z,95097.31
2019-05-12T01:45:01.036Z,95100.08
2019-05-12T01:47:32.836Z,95095.92
2019-05-12T01:50:04.512Z,95105.98
2019-05-12T01:52:38.391Z,95105.70
2019-05-12T01:55:09.222Z,95105.98
2019-05-12T01:57:40.488Z,95104.67
2019-05-12T02:00:12.934Z,95104.06
2019-05-12T02:02:44.229Z,95100.59
2019-05-12T02:05:15.573Z,95097.45
2019-05-12T02:07:52.162Z,95101.08
2019-05-12T02:10:24.225Z,95107.34
2019-05-12T02:12:55.658Z,95104.52
2019-05-12T02:15:27.861Z,95113.66
2019-05-12T02:17:59.542Z,95121.41
2019-05-12T02:20:30.838Z,95118.31
2019-05-12T02:23:02.095Z,95126.73
2019-05-12T02:25:33.470Z,95126.89
2019-05-12T02:28:04.964Z,95123.95
2019-05-12T02:30:40.742Z,95120.86
2019-05-12T02:33:09.773Z,95116.86
2019-05-12T02:35:44.250Z,95121.58
2019-05-12T02:38:14.682Z,95119.40
2019-05-12T02:40:46.273Z,95121.91
2019-05-12T02:43:17.847Z,95114.63
2019-05-12T02:45:49.092Z,95117.61
2019-05-12T02:48:20.231Z,95107.55
2019-05-12T02:50:54.405Z,95110.27
2019-05-12T02:53:25.170Z,95115.91
2019-05-12T02:55:57.809Z,95109.02
2019-05-12T02:58:30.803Z,95113.05
2019-05-12T03:01:05.422Z,95121.95
2019-05-12T03:03:37.746Z,95129.97
2019-05-12T03:06:09.689Z,95129.49
2019-05-12T03:08:44.700Z,95136.63
2019-05-12T03:11:15.274Z,95146.32
2019-05-12T03:13:46.737Z,95143.74
2019-05-12T03:16:18.199Z,95145.50
2019-05-12T03:18:49.763Z,95156.86
2019-05-12T03:21:24.305Z,95148.77
2019-05-12T03:23:55.273Z,95150.47
2019-05-12T03:26:26.947Z,95154.91
2019-05-12T03:28:58.401Z,95153.73
2019-05-12T03:31:31.955Z,95153.79
2019-05-12T03:34:09.642Z,95153.05
2019-05-12T03:36:42.312Z,95151.51
2019-05-12T03:39:09.702Z,95154.92
2019-05-12T03:41:44.339Z,95161.23
2019-05-12T03:44:15.286Z,95153.14
2019-05-12T03:46:46.924Z,95150.75
2019-05-12T03:49:19.580Z,95152.38
2019-05-12T03:51:54.208Z,95153.25
2019-05-12T03:54:24.569Z,95153.86
2019-05-12T03:56:56.078Z,95151.30
2019-05-12T03:59:27.520Z,95151.30
2019-05-12T04:01:58.855Z,95149.19
2019-05-12T04:04:30.006Z,95153.37
2019-05-12T04:07:01.208Z,95155.29
2019-05-12T04:09:34.879Z,95162.23
2019-05-12T04:12:05.614Z,95156.09
2019-05-12T04:14:37.114Z,95158.70
2019-05-12T04:17:08.482Z,95158.98
2019-05-12T04:19:39.938Z,95155.50
2019-05-12T04:22:11.425Z,95159.02
2019-05-12T04:24:44.569Z,95156.78
2019-05-12T04:27:15.621Z,95154.63
2019-05-12T04:29:46.934Z,95163.77
2019-05-12T04:32:18.018Z,95163.77
2019-05-12T04:34:49.166Z,95168.84
2019-05-12T04:37:20.577Z,95178.03
2019-05-12T04:39:49.777Z,95178.46
2019-05-12T04:42:21.036Z,95174.44
2019-05-12T04:44:55.189Z,95165.55
2019-05-12T04:47:25.468Z,95170.67
2019-05-12T04:49:56.338Z,95167.98
2019-05-12T04:52:27.500Z,95169.02
2019-05-12T04:54:58.482Z,95176.13
2019-05-12T04:57:29.397Z,95170.92
2019-05-12T05:00:00.391Z,95175.36
2019-05-12T05:02:35.103Z,95175.39
2019-05-12T05:05:05.409Z,95175.34
2019-05-12T05:07:36.645Z,95172.90
2019-05-12T05:10:07.733Z,95171.62
2019-05-12T05:12:38.553Z,95168.87
2019-05-12T05:15:09.760Z,95175.41
2019-05-12T05:17:43.946Z,95173.89
2019-05-12T05:20:13.806Z,95166.44
2019-05-12T05:22:44.648Z,95167.39
2019-05-12T05:25:15.591Z,95164.40
2019-05-12T05:27:46.635Z,95162.52
2019-05-12T05:30:18.155Z,95166.58
2019-05-12T05:32:48.988Z,95165.40
2019-05-12T05:35:19.806Z,95154.14
2019-05-12T05:37:53.894Z,95154.14
2019-05-12T05:40:30.052Z,95149.98
2019-05-12T05:42:57.429Z,95149.98
2019-05-12T05:45:28.525Z,95160.07
2019-05-12T05:48:04.106Z,95149.94
2019-05-12T05:50:34.286Z,95143.68
2019-05-12T05:53:09.306Z,95144.73
2019-05-12T05:55:37.732Z,95152.33
2019-05-12T05:58:10.591Z,95151.23
2019-05-12T06:00:43.490Z,95150.98
2019-05-12T06:03:23.251Z,95150.28
2019-05-12T06:05:47.362Z,95152.36
2019-05-12T06:08:20.713Z,95155.08
2019-05-12T06:10:50.806Z,95149.66
2019-05-12T06:13:27.337Z,95154.72
2019-05-12T06:15:55.261Z,95156.00
2019-05-12T06:18:28.866Z,95165.62
2019-05-12T06:20:58.984Z,95158.98
2019-05-12T06:23:34.923Z,95157.84
2019-05-12T06:26:04.328Z,95147.44
2019-05-12T06:28:39.351Z,95146.10
2019-05-12T06:31:08.061Z,95153.94
2019-05-12T06:33:39.235Z,95151.27
2019-05-12T06:36:13.714Z,95154.15
2019-05-12T06:38:43.454Z,95157.66
2019-05-12T06:41:20.617Z,95164.22
2019-05-12T06:43:47.236Z,95164.77
2019-05-12T06:46:21.198Z,95158.55
2019-05-12T06:48:50.678Z,95157.81
2019-05-12T06:51:23.689Z,95158.14
2019-05-12T06:53:54.525Z,95163.40
2019-05-12T06:56:25.732Z,95152.48
2019-05-12T06:59:00.985Z,95150.41
2019-05-12T07:01:29.374Z,95148.36
2019-05-12T07:04:05.572Z,95146.30
2019-05-12T07:06:33.998Z,95145.75
2019-05-12T07:09:09.955Z,95142.58
2019-05-12T07:11:45.124Z,95146.59
2019-05-12T07:14:18.927Z,95140.77
2019-05-12T07:16:46.854Z,95139.79
2019-05-12T07:19:22.695Z,95136.27
2019-05-12T07:21:55.404Z,95127.16
2019-05-12T07:24:24.182Z,95124.03
2019-05-12T07:27:04.119Z,95128.00
2019-05-12T07:29:28.047Z,95119.98
2019-05-12T07:31:59.101Z,95114.25
2019-05-12T07:34:30.381Z,95109.82
2019-05-12T07:37:04.266Z,95109.66
2019-05-12T07:39:47.246Z,95105.63
2019-05-12T07:42:10.628Z,95105.03
2019-05-12T07:44:44.156Z,95106.61
2019-05-12T07:47:19.251Z,95103.21
2019-05-12T07:49:47.888Z,95096.33
2019-05-12T07:52:20.025Z,95094.45
2019-05-12T07:54:53.772Z,95092.34
2019-05-12T07:57:24.221Z,95094.34
2019-05-12T07:59:55.254Z,95090.21
2019-05-12T08:02:31.568Z,95092.11
2019-05-12T08:04:59.715Z,95087.81
2019-05-12T08:07:30.761Z,95084.02
2019-05-12T08:10:07.186Z,95086.56
2019-05-12T08:12:34.356Z,95083.48
2019-05-12T08:15:09.592Z,95079.11
2019-05-12T08:17:38.883Z,95089.35
2019-05-12T08:20:10.017Z,95081.47
2019-05-12T08:22:41.076Z,95082.18
2019-05-12T08:25:13.455Z,95091.30
2019-05-12T08:27:49.445Z,95087.34
2019-05-12T08:30:18.728Z,95096.42
2019-05-12T08:32:54.708Z,95088.88
2019-05-12T08:35:29.408Z,95077.30
2019-05-12T08:37:54.971Z,95076.72
2019-05-12T08:40:25.925Z,95076.36
2019-05-12T08:42:59.329Z,95072.83
2019-05-12T08:45:33.976Z,95073.02
2019-05-12T08:48:03.877Z,95060.86
2019-05-12T08:50:36.142Z,95074.91
2019-05-12T08:53:14.063Z,95067.23
2019-05-12T08:55:40.056Z,95066.25
2019-05-12T08:58:11.073Z,95064.98
2019-05-12T09:00:50.056Z,95070.50
2019-05-12T09:03:15.244Z,95073.09
2019-05-12T09:05:48.579Z,95065.91
2019-05-12T09:08:20.083Z,95065.69
2019-05-12T09:10:53.134Z,95062.49
2019-05-12T09:13:24.047Z,95066.31
2019-05-12T09:15:55.103Z,95061.90
2019-05-12T09:18:33.653Z,95069.59
2019-05-12T09:20:59.044Z,95062.78
2019-05-12T09:23:32.685Z,95064.89
2019-05-12T09:26:04.132Z,95063.30
2019-05-12T09:28:46.511Z,95063.11
2019-05-12T09:31:08.220Z,95062.91
2019-05-12T09:33:39.450Z,95065.27
2019-05-12T09:36:11.320Z,95050.72
2019-05-12T09:38:44.010Z,95064.06
2019-05-12T09:41:15.185Z,95056.44
2019-05-12T09:43:50.441Z,95056.71
2019-05-12T09:46:19.690Z,95057.98
2019-05-12T09:48:52.839Z,95052.13
2019-05-12T09:51:23.824Z,95056.69
2019-05-12T09:53:55.623Z,95054.33
2019-05-12T09:56:26.761Z,95051.03
2019-05-12T09:59:01.726Z,95055.83
2019-05-12T10:01:37.383Z,95048.44
2019-05-12T10:04:03.645Z,95042.49
2019-05-12T10:06:36.029Z,95045.08
2019-05-12T10:09:08.775Z,95053.74
2019-05-12T10:11:40.649Z,95046.59
2019-05-12T10:14:13.836Z,95039.09
2019-05-12T10:16:49.612Z,95038.86
2019-05-12T10:19:17.673Z,95033.17
2019-05-12T10:21:49.078Z,95030.97
2019-05-12T10:24:21.409Z,95021.50
2019-05-12T10:26:54.119Z,95018.70
2019-05-12T10:29:30.613Z,95008.92
2019-05-12T10:31:58.143Z,95004.64
2019-05-12T10:34:34.223Z,95006.89
2019-05-12T10:37:03.775Z,94997.53
2019-05-12T10:39:34.815Z,94992.63
2019-05-12T10:42:05.940Z,94998.77
2019-05-12T10:44:40.888Z,94996.56
2019-05-12T10:47:13.521Z,94994.55
2019-05-12T10:49:44.755Z,94991.93
2019-05-12T10:52:15.971Z,94994.66
2019-05-12T10:54:47.253Z,94998.99
2019-05-12T10:57:18.180Z,94998.82
2019-05-12T10:59:49.234Z,94996.44
2019-05-12T11:02:25.726Z,94995.63
2019-05-12T11:04:54.117Z,95000.11
2019-05-12T11:07:28.119Z,94993.87
2019-05-12T11:10:05.090Z,94995.48
2019-05-12T11:12:30.433Z,94990.54
2019-05-12T11:15:06.348Z,94987.02
2019-05-12T11:18:04.871Z,94993.36
2019-05-12T11:20:35.960Z,94986.19
2019-05-12T11:23:07.015Z,94985.20
2019-05-12T11:25:38.185Z,94981.70
2019-05-12T11:28:09.352Z,94977.95
2019-05-12T11:30:43.527Z,94975.87
2019-05-12T11:33:14.619Z,94970.78
2019-05-12T11:35:45.785Z,94970.42
2019-05-12T11:38:16.651Z,94959.34
2019-05-12T11:40:47.816Z,94956.77
2019-05-12T11:43:18.680Z,94964.57
2019-05-12T11:45:49.900Z,94953.08
2019-05-12T11:48:23.360Z,94949.59
2019-05-12T11:50:54.595Z,94949.58
2019-05-12T11:53:30.986Z,94959.48
2019-05-12T11:56:02.233Z,94970.05
2019-05-12T11:58:33.438Z,94955.37
2019-05-12T12:01:08.277Z,94947.64
2019-05-12T12:03:38.995Z,94926.15
2019-05-12T12:06:09.979Z,94949.61
2019-05-12T12:08:40.983Z,94940.27
2019-05-12T12:11:18.568Z,94945.23
2019-05-12T12:13:44.617Z,94953.14
2019-05-12T12:16:15.402Z,94970.30
2019-05-12T12:18:49.388Z,94960.80
2019-05-12T12:21:19.174Z,94935.09
2019-05-12T12:23:50.352Z,94944.11
2019-05-12T12:26:30.446Z,94959.84
2019-05-12T12:28:59.705Z,94943.66
2019-05-12T12:31:47.708Z,94950.91
2019-05-12T12:34:25.555Z,94943.38
2019-05-12T12:36:54.453Z,94937.22
2019-05-12T12:39:24.899Z,94938.36
2019-05-12T12:42:00.377Z,94922.77
2019-05-12T12:44:28.957Z,94925.50
2019-05-12T12:47:01.840Z,94922.13
2019-05-12T12:49:33.934Z,94911.44
2019-05-12T12:52:05.225Z,94915.03
2019-05-12T12:54:36.274Z,94916.76
2019-05-12T12:57:09.902Z,94917.37
2019-05-12T12:59:44.156Z,94923.17
2019-05-12T13:02:14.213Z,94921.20
2019-05-12T13:04:50.207Z,94917.33
2019-05-12T13:07:18.163Z,94920.91
2019-05-12T13:09:54.936Z,94921.59
2019-05-12T13:12:22.179Z,94916.64
2019-05-12T13:14:53.323Z,94924.78
2019-05-12T13:17:27.346Z,94909.11
2019-05-12T13:19:58.848Z,94928.16
2019-05-12T13:22:30.177Z,94911.89
2019-05-12T13:25:04.560Z,94911.04
2019-05-12T13:27:36.935Z,94918.71
2019-05-12T13:30:18.837Z,94904.59
2019-05-12T13:32:40.699Z,94908.80
2019-05-12T13:35:16.345Z,94908.92
2019-05-12T13:37:44.476Z,94913.55
2019-05-12T13:40:15.724Z,94902.77
2019-05-12T13:42:46.807Z,94903.72
2019-05-12T13:45:19.091Z,94900.83
2019-05-12T13:47:50.023Z,94896.60
2019-05-12T13:50:26.066Z,94897.88
2019-05-12T13:52:54.530Z,94906.55
2019-05-12T13:55:25.451Z,94903.98
2019-05-12T13:57:57.749Z,94905.65
2019-05-12T14:00:29.194Z,94926.52
2019-05-12T14:03:07.142Z,94900.13
2019-05-12T14:05:33.297Z,94905.11
2019-05-12T14:08:04.267Z,94911.03
2019-05-12T14:10:37.601Z,94908.29
2019-05-12T14:13:09.181Z,94915.13
2019-05-12T14:15:40.077Z,94904.42
2019-05-12T14:18:18.457Z,94900.56
2019-05-12T14:20:45.399Z,94903.84
2019-05-12T14:23:16.623Z,94913.86
2019-05-12T14:25:47.485Z,94909.13
2019-05-12T14:28:18.435Z,94888.16
2019-05-12T14:30:51.617Z,94914.81
2019-05-12T14:33:24.335Z,94922.19
2019-05-12T14:35:54.978Z,94942.18
2019-05-12T14:38:29.526Z,94925.85
2019-05-12T14:41:01.239Z,94921.01
2019-05-12T14:43:33.975Z,94914.23
2019-05-12T14:46:08.479Z,94912.62
2019-05-12T14:48:40.146Z,94926.61
2019-05-12T14:51:10.587Z,94910.39
2019-05-12T14:53:41.557Z,94931.14
2019-05-12T14:56:14.015Z,94915.73
2019-05-12T14:58:50.159Z,94909.11
2019-05-12T15:01:18.537Z,94910.72
2019-05-12T15:03:49.687Z,94917.30
2019-05-12T15:06:25.731Z,94923.49
2019-05-12T15:08:54.129Z,94917.66
2019-05-12T15:11:25.449Z,94917.72
2019-05-12T15:13:56.456Z,94930.17
2019-05-12T15:16:31.825Z,94915.44
2019-05-12T15:19:00.374Z,94912.78
2019-05-12T15:21:33.500Z,94915.66
2019-05-12T15:24:09.223Z,94935.55
2019-05-12T15:26:37.208Z,94943.15
2019-05-12T15:29:13.407Z,94931.30
2019-05-12T15:31:52.709Z,94918.32
2019-05-12T15:34:14.366Z,94917.06
2019-05-12T15:36:51.877Z,94920.38
2019-05-12T15:39:18.670Z,94922.66
2019-05-12T15:41:51.055Z,94917.06
2019-05-12T15:44:31.168Z,94925.47
2019-05-12T15:46:55.610Z,94922.88
2019-05-12T15:49:27.505Z,94916.23
2019-05-12T15:51:58.751Z,94925.24
2019-05-12T15:54:31.097Z,94921.34
2019-05-12T15:57:04.163Z,94932.46
2019-05-12T15:59:35.080Z,94928.69
2019-05-12T16:02:13.352Z,94928.95
2019-05-12T16:04:42.932Z,94929.40
2019-05-12T16:07:14.245Z,94929.59
2019-05-12T16:09:45.777Z,94926.30
2019-05-12T16:12:23.367Z,94934.83
2019-05-12T16:14:50.585Z,94931.66
2019-05-12T16:17:25.443Z,94934.83
2019-05-12T16:19:54.480Z,94938.07
2019-05-12T16:22:30.701Z,94943.49
2019-05-12T16:24:58.960Z,94935.02
2019-05-12T16:27:33.711Z,94933.96
2019-05-12T16:30:04.566Z,94931.02
2019-05-12T16:32:42.684Z,94945.28
2019-05-12T16:35:07.724Z,94941.44
2019-05-12T16:37:39.958Z,94939.95
2019-05-12T16:40:13.443Z,94939.72
2019-05-12T16:42:52.515Z,94950.34
2019-05-12T16:45:19.844Z,94949.64
2019-05-12T16:47:50.113Z,94942.72
2019-05-12T16:50:27.385Z,94936.30
2019-05-12T16:52:54.746Z,94954.25
2019-05-12T16:55:25.850Z,94953.31
2019-05-12T16:57:57.167Z,94950.18
2019-05-12T17:00:30.994Z,94950.05
2019-05-12T17:03:03.772Z,94964.97
2019-05-12T17:05:35.052Z,94964.56
2019-05-12T17:08:06.026Z,94964.61
2019-05-12T17:10:36.926Z,94967.09
2019-05-12T17:13:13.841Z,94962.16
2019-05-12T17:15:40.409Z,94965.03
2019-05-12T17:18:13.589Z,94965.96
2019-05-12T17:20:46.991Z,94970.74
2019-05-12T17:23:16.868Z,94979.30
2019-05-12T17:25:48.120Z,94976.78
2019-05-12T17:28:19.713Z,94976.53
2019-05-12T17:30:50.560Z,94982.34
2019-05-12T17:33:22.772Z,94984.20
2019-05-12T17:35:54.404Z,94983.33
2019-05-12T17:38:25.653Z,94983.40
2019-05-12T17:41:00.691Z,94980.45
2019-05-12T17:43:29.811Z,94978.55
2019-05-12T17:46:04.076Z,94984.67
2019-05-12T17:48:37.269Z,94984.55
2019-05-12T17:51:07.329Z,94987.72
2019-05-12T17:53:38.515Z,94992.32
2019-05-12T17:56:10.009Z,94991.30
2019-05-12T17:58:45.232Z,95005.09
2019-05-12T18:01:14.464Z,94995.87
2019-05-12T18:03:50.428Z,95005.34
2019-05-12T18:06:20.456Z,95000.84
2019-05-12T18:08:53.422Z,94996.14
2019-05-12T18:11:25.078Z,95007.64
2019-05-12T18:14:02.538Z,95008.53
2019-05-12T18:16:29.518Z,95009.34
2019-05-12T18:19:03.194Z,95019.92
2019-05-12T18:21:34.124Z,95013.50
2019-05-12T18:24:11.038Z,95028.78
2019-05-12T18:26:39.439Z,95013.61
2019-05-12T18:29:10.616Z,95013.80
2019-05-12T18:31:43.687Z,95023.05
2019-05-12T18:34:14.822Z,95019.92
2019-05-12T18:36:49.137Z,95018.02
2019-05-12T18:39:18.951Z,95009.16
2019-05-12T18:41:50.162Z,95027.59
2019-05-12T18:44:28.898Z,95017.39
2019-05-12T18:46:54.274Z,95025.87
2019-05-12T18:49:25.061Z,95007.13
2019-05-12T18:51:57.220Z,95009.70
2019-05-12T18:54:28.227Z,95013.50
2019-05-12T18:57:04.870Z,95021.73
2019-05-12T18:59:33.961Z,95017.66
2019-05-12T19:02:05.261Z,95016.66
2019-05-12T19:04:39.601Z,95024.92
2019-05-12T19:07:09.721Z,95012.20
2019-05-12T19:09:44.761Z,95018.80
2019-05-12T19:12:17.914Z,95017.58
2019-05-12T19:14:46.394Z,95016.47
2019-05-12T19:17:17.930Z,95016.66
2019-05-12T19:19:53.975Z,95022.27
2019-05-12T19:22:21.566Z,95018.14
2019-05-12T19:24:56.668Z,95022.72
2019-05-12T19:27:25.091Z,95019.95
2019-05-12T19:29:56.107Z,95022.62
2019-05-12T19:32:28.330Z,95016.81
2019-05-12T19:35:00.928Z,95032.27
2019-05-12T19:37:33.655Z,95011.72
2019-05-12T19:40:11.861Z,95015.59
2019-05-12T19:42:38.028Z,95023.12
2019-05-12T19:45:16.075Z,95015.80
2019-05-12T19:47:44.321Z,95031.14
2019-05-12T19:50:18.510Z,95022.82
2019-05-12T19:52:47.661Z,95026.19
2019-05-12T19:55:20.252Z,95025.47
2019-05-12T19:57:51.445Z,95020.27
2019-05-12T20:00:22.949Z,95028.32
2019-05-12T20:02:53.942Z,95022.31
2019-05-12T20:05:24.847Z,95032.67
2019-05-12T20:07:55.945Z,95034.62
2019-05-12T20:10:26.812Z,95031.36
2019-05-12T20:12:57.923Z,95031.87
2019-05-12T20:15:30.305Z,95033.59
2019-05-12T20:18:04.091Z,95030.73
2019-05-12T20:20:37.841Z,95027.88
2019-05-12T20:23:06.787Z,95030.95
2019-05-12T20:25:37.767Z,95029.12
2019-05-12T20:28:11.243Z,95031.47
2019-05-12T20:30:43.666Z,95031.16
2019-05-12T20:33:13.967Z,95034.28
2019-05-12T20:35:49.071Z,95026.89
2019-05-12T20:38:17.598Z,95023.23
2019-05-12T20:40:48.577Z,95027.28
2019-05-12T20:43:24.050Z,95026.27
2019-05-12T20:45:52.725Z,95030.66
2019-05-12T20:48:26.525Z,95028.11
2019-05-12T20:50:56.212Z,95022.02
2019-05-12T20:53:31.730Z,95025.75
2019-05-12T20:55:59.864Z,95021.49
2019-05-12T20:58:38.538Z,95016.33
2019-05-12T21:01:05.211Z,95024.95
2019-05-12T21:03:39.757Z,95016.52
2019-05-12T21:06:09.493Z,95015.48
2019-05-12T21:08:44.910Z,95012.43
2019-05-12T21:11:13.534Z,95008.29
2019-05-12T21:13:44.588Z,95010.09
2019-05-12T21:16:19.561Z,95008.67
2019-05-12T21:18:55.905Z,95017.92
2019-05-12T21:21:25.232Z,95025.33
2019-05-12T21:23:58.721Z,95014.86
2019-05-12T21:26:28.353Z,95015.88
2019-05-12T21:28:59.350Z,95017.63
2019-05-12T21:31:31.122Z,95013.66
2019-05-12T21:34:04.512Z,95014.86
2019-05-12T21:36:35.036Z,95014.31
2019-05-12T21:39:10.514Z,95020.44
2019-05-12T21:41:50.506Z,95018.52
2019-05-12T21:44:14.291Z,95011.45
2019-05-12T21:46:57.101Z,95011.16
2019-05-12T21:49:18.049Z,95010.86
2019-05-12T21:51:50.421Z,95011.75
2019-05-12T21:54:24.164Z,95008.81
2019-05-12T21:56:55.030Z,95009.23
2019-05-12T21:59:29.003Z,95011.66
2019-05-12T22:01:59.353Z,94997.01
2019-05-12T22:04:32.888Z,95007.48
2019-05-12T22:07:03.933Z,95008.28
2019-05-12T22:09:41.774Z,95017.60
2019-05-12T22:12:09.468Z,95017.52
2019-05-12T22:14:41.027Z,95014.52
2019-05-12T22:17:13.723Z,95010.77
2019-05-12T22:19:44.955Z,95021.77
2019-05-12T22:22:19.556Z,95014.84
2019-05-12T22:24:49.237Z,94999.16
2019-05-12T22:27:25.796Z,94999.16
2019-05-12T22:29:53.510Z,95003.62
2019-05-12T22:32:29.514Z,94992.52
2019-05-12T22:34:59.723Z,94996.18
2019-05-12T22:37:34.988Z,94997.12
2019-05-12T22:40:06.177Z,94998.28
2019-05-12T22:42:36.198Z,94995.73
2019-05-12T22:45:07.293Z,94999.02
2019-05-12T22:47:38.292Z,95001.25
2019-05-12T22:50:10.196Z,95002.39
2019-05-12T22:52:47.273Z,94996.38
2019-05-12T22:55:14.561Z,94991.44
2019-05-12T22:57:45.457Z,94990.25
2019-05-12T23:00:19.335Z,94997.68
2019-05-12T23:02:50.048Z,94992.87
2019-05-12T23:05:21.547Z,94997.24
2019-05-12T23:07:54.407Z,95001.80
2019-05-12T23:10:26.300Z,95000.09
2019-05-12T23:13:01.763Z,95001.55
2019-05-12T23:15:30.469Z,95008.50
2019-05-12T23:18:04.027Z,94999.38
2019-05-12T23:20:35.735Z,95010.45
2019-05-12T23:23:09.112Z,95009.23
2019-05-12T23:25:39.621Z,95009.44
2019-05-12T23:28:10.894Z,95011.25
2019-05-12T23:30:48.391Z,95012.58
2019-05-12T23:33:15.996Z,95012.58
2019-05-12T23:35:47.184Z,95006.50
2019-05-12T23:38:20.904Z,95012.02
2019-05-12T23:40:51.006Z,95005.69
2019-05-12T23:43:23.782Z,95011.30
2019-05-12T23:45:56.594Z,95013.37
2019-05-12T23:48:27.859Z,95015.88
2019-05-12T23:50:58.970Z,95021.69
2019-05-12T23:53:30.109Z,95016.41
2019-05-12T23:56:03.719Z,95015.59
2019-05-12T23:58:34.292Z,95015.14
